sensor_id;sensor_type;location;lat;lon;timestamp;temperature;humidity
63051;SHT30;49136;47.416;19.402;2022-11-03T00:01:43;7.58;99.60
63051;SHT30;49136;47.416;19.402;2022-11-03T00:04:14;7.55;99.67
63051;SHT30;49136;47.416;19.402;2022-11-03T00:06:41;7.51;99.69
63051;SHT30;49136;47.416;19.402;2022-11-03T00:09:09;7.44;99.72
63051;SHT30;49136;47.416;19.402;2022-11-03T00:11:36;7.35;99.69
63051;SHT30;49136;47.416;19.402;2022-11-03T00:14:03;7.34;99.74
63051;SHT30;49136;47.416;19.402;2022-11-03T00:16:29;7.33;99.74
63051;SHT30;49136;47.416;19.402;2022-11-03T00:18:55;7.24;99.75
63051;SHT30;49136;47.416;19.402;2022-11-03T00:21:20;7.17;99.76
63051;SHT30;49136;47.416;19.402;2022-11-03T00:23:46;7.16;99.77
63051;SHT30;49136;47.416;19.402;2022-11-03T00:26:13;7.12;99.75
63051;SHT30;49136;47.416;19.402;2022-11-03T00:28:40;7.33;99.81
63051;SHT30;49136;47.416;19.402;2022-11-03T00:31:11;7.37;99.87
63051;SHT30;49136;47.416;19.402;2022-11-03T00:33:38;7.28;99.83
63051;SHT30;49136;47.416;19.402;2022-11-03T00:36:04;7.27;99.83
63051;SHT30;49136;47.416;19.402;2022-11-03T00:38:31;7.13;99.87
63051;SHT30;49136;47.416;19.402;2022-11-03T00:40:59;7.08;99.88
63051;SHT30;49136;47.416;19.402;2022-11-03T00:43:25;6.96;99.82
63051;SHT30;49136;47.416;19.402;2022-11-03T00:45:51;6.85;99.87
63051;SHT30;49136;47.416;19.402;2022-11-03T00:48:17;6.70;99.87
63051;SHT30;49136;47.416;19.402;2022-11-03T00:56:13;6.46;99.84
63051;SHT30;49136;47.416;19.402;2022-11-03T00:58:40;6.33;99.80
63051;SHT30;49136;47.416;19.402;2022-11-03T01:01:09;6.26;99.83
63051;SHT30;49136;47.416;19.402;2022-11-03T01:03:37;6.34;99.89
63051;SHT30;49136;47.416;19.402;2022-11-03T01:06:07;6.40;99.84
63051;SHT30;49136;47.416;19.402;2022-11-03T01:08:51;6.37;99.86
63051;SHT30;49136;47.416;19.402;2022-11-03T01:11:19;6.68;99.86
63051;SHT30;49136;47.416;19.402;2022-11-03T01:14:04;6.51;99.90
63051;SHT30;49136;47.416;19.402;2022-11-03T01:16:30;6.36;99.90
63051;SHT30;49136;47.416;19.402;2022-11-03T01:18:56;6.23;99.90
63051;SHT30;49136;47.416;19.402;2022-11-03T01:21:22;6.15;99.89
63051;SHT30;49136;47.416;19.402;2022-11-03T01:23:48;6.08;99.93
63051;SHT30;49136;47.416;19.402;2022-11-03T01:26:13;5.97;99.89
63051;SHT30;49136;47.416;19.402;2022-11-03T01:28:41;5.93;99.92
63051;SHT30;49136;47.416;19.402;2022-11-03T01:31:14;5.93;99.91
63051;SHT30;49136;47.416;19.402;2022-11-03T01:33:40;5.90;99.88
63051;SHT30;49136;47.416;19.402;2022-11-03T01:36:06;6.02;99.93
63051;SHT30;49136;47.416;19.402;2022-11-03T01:38:33;6.11;99.95
63051;SHT30;49136;47.416;19.402;2022-11-03T01:40:59;6.96;99.99
63051;SHT30;49136;47.416;19.402;2022-11-03T01:43:25;7.35;99.99
63051;SHT30;49136;47.416;19.402;2022-11-03T01:48:27;7.58;99.97
63051;SHT30;49136;47.416;19.402;2022-11-03T01:50:53;7.46;99.92
63051;SHT30;49136;47.416;19.402;2022-11-03T01:53:19;7.38;99.87
63051;SHT30;49136;47.416;19.402;2022-11-03T01:55:46;7.48;99.85
63051;SHT30;49136;47.416;19.402;2022-11-03T01:58:18;7.52;99.77
63051;SHT30;49136;47.416;19.402;2022-11-03T02:00:47;7.87;99.76
63051;SHT30;49136;47.416;19.402;2022-11-03T02:03:15;7.76;99.59
63051;SHT30;49136;47.416;19.402;2022-11-03T02:05:42;7.74;99.42
63051;SHT30;49136;47.416;19.402;2022-11-03T02:08:22;8.07;99.24
63051;SHT30;49136;47.416;19.402;2022-11-03T02:10:50;8.03;98.95
63051;SHT30;49136;47.416;19.402;2022-11-03T02:13:22;8.11;99.01
63051;SHT30;49136;47.416;19.402;2022-11-03T02:15:49;8.17;98.87
63051;SHT30;49136;47.416;19.402;2022-11-03T02:18:19;8.49;98.88
63051;SHT30;49136;47.416;19.402;2022-11-03T02:20:51;8.81;98.62
63051;SHT30;49136;47.416;19.402;2022-11-03T02:23:26;9.21;98.24
63051;SHT30;49136;47.416;19.402;2022-11-03T02:25:56;8.86;98.22
63051;SHT30;49136;47.416;19.402;2022-11-03T02:28:28;8.59;98.35
63051;SHT30;49136;47.416;19.402;2022-11-03T02:31:17;8.27;98.36
63051;SHT30;49136;47.416;19.402;2022-11-03T02:34:02;7.94;98.46
63051;SHT30;49136;47.416;19.402;2022-11-03T02:36:32;7.74;98.51
63051;SHT30;49136;47.416;19.402;2022-11-03T02:39:11;7.58;98.62
63051;SHT30;49136;47.416;19.402;2022-11-03T02:41:39;7.72;98.64
63051;SHT30;49136;47.416;19.402;2022-11-03T02:44:10;8.07;98.92
63051;SHT30;49136;47.416;19.402;2022-11-03T02:46:36;8.37;98.05
63051;SHT30;49136;47.416;19.402;2022-11-03T02:49:02;8.07;98.16
63051;SHT30;49136;47.416;19.402;2022-11-03T02:51:28;7.87;98.23
63051;SHT30;49136;47.416;19.402;2022-11-03T02:56:25;7.86;98.28
63051;SHT30;49136;47.416;19.402;2022-11-03T02:59:00;7.86;98.30
63051;SHT30;49136;47.416;19.402;2022-11-03T03:01:27;7.64;98.25
63051;SHT30;49136;47.416;19.402;2022-11-03T03:04:00;7.43;98.42
63051;SHT30;49136;47.416;19.402;2022-11-03T03:06:49;7.22;98.46
63051;SHT30;49136;47.416;19.402;2022-11-03T03:09:22;7.13;98.47
63051;SHT30;49136;47.416;19.402;2022-11-03T03:11:50;6.95;98.51
63051;SHT30;49136;47.416;19.402;2022-11-03T03:14:21;6.84;98.40
63051;SHT30;49136;47.416;19.402;2022-11-03T03:17:00;6.73;98.43
63051;SHT30;49136;47.416;19.402;2022-11-03T03:19:55;6.51;98.48
63051;SHT30;49136;47.416;19.402;2022-11-03T03:25:31;6.23;98.39
63051;SHT30;49136;47.416;19.402;2022-11-03T03:28:36;6.15;98.42
63051;SHT30;49136;47.416;19.402;2022-11-03T03:31:07;6.05;98.48
63051;SHT30;49136;47.416;19.402;2022-11-03T03:33:33;6.08;98.49
63051;SHT30;49136;47.416;19.402;2022-11-03T03:36:01;6.06;98.47
63051;SHT30;49136;47.416;19.402;2022-11-03T03:38:32;6.08;98.52
63051;SHT30;49136;47.416;19.402;2022-11-03T03:40:58;6.11;98.59
63051;SHT30;49136;47.416;19.402;2022-11-03T03:43:27;6.33;98.58
63051;SHT30;49136;47.416;19.402;2022-11-03T03:45:57;6.33;98.62
63051;SHT30;49136;47.416;19.402;2022-11-03T03:48:24;6.36;98.58
63051;SHT30;49136;47.416;19.402;2022-11-03T03:50:50;6.41;98.53
63051;SHT30;49136;47.416;19.402;2022-11-03T03:53:17;6.37;98.50
63051;SHT30;49136;47.416;19.402;2022-11-03T03:55:46;6.47;98.51
63051;SHT30;49136;47.416;19.402;2022-11-03T03:58:13;6.67;98.56
63051;SHT30;49136;47.416;19.402;2022-11-03T04:00:39;6.92;98.76
63051;SHT30;49136;47.416;19.402;2022-11-03T04:03:21;7.00;98.70
63051;SHT30;49136;47.416;19.402;2022-11-03T04:05:47;7.12;98.61
63051;SHT30;49136;47.416;19.402;2022-11-03T04:08:14;7.02;98.47
63051;SHT30;49136;47.416;19.402;2022-11-03T04:10:39;6.98;98.49
63051;SHT30;49136;47.416;19.402;2022-11-03T04:13:05;7.22;98.33
63051;SHT30;49136;47.416;19.402;2022-11-03T04:15:51;7.17;98.34
63051;SHT30;49136;47.416;19.402;2022-11-03T04:18:18;7.15;98.28
63051;SHT30;49136;47.416;19.402;2022-11-03T04:21:02;7.31;98.30
63051;SHT30;49136;47.416;19.402;2022-11-03T04:23:46;7.43;98.13
63051;SHT30;49136;47.416;19.402;2022-11-03T04:26:14;7.65;97.94
63051;SHT30;49136;47.416;19.402;2022-11-03T04:28:40;7.86;97.83
63051;SHT30;49136;47.416;19.402;2022-11-03T04:31:11;8.13;97.20
63051;SHT30;49136;47.416;19.402;2022-11-03T04:33:36;7.93;97.25
63051;SHT30;49136;47.416;19.402;2022-11-03T04:36:10;7.81;97.48
63051;SHT30;49136;47.416;19.402;2022-11-03T04:38:36;7.86;97.41
63051;SHT30;49136;47.416;19.402;2022-11-03T04:41:12;7.67;97.68
63051;SHT30;49136;47.416;19.402;2022-11-03T04:43:40;7.61;97.85
63051;SHT30;49136;47.416;19.402;2022-11-03T04:46:12;7.44;97.93
63051;SHT30;49136;47.416;19.402;2022-11-03T04:48:37;7.46;97.97
63051;SHT30;49136;47.416;19.402;2022-11-03T04:51:12;7.37;98.02
63051;SHT30;49136;47.416;19.402;2022-11-03T04:53:44;7.30;98.05
63051;SHT30;49136;47.416;19.402;2022-11-03T04:56:17;7.26;98.15
63051;SHT30;49136;47.416;19.402;2022-11-03T04:58:44;7.19;98.19
63051;SHT30;49136;47.416;19.402;2022-11-03T05:01:14;7.16;98.28
63051;SHT30;49136;47.416;19.402;2022-11-03T05:03:41;7.16;98.33
63051;SHT30;49136;47.416;19.402;2022-11-03T05:06:19;7.12;98.35
63051;SHT30;49136;47.416;19.402;2022-11-03T05:08:50;7.06;98.37
63051;SHT30;49136;47.416;19.402;2022-11-03T05:13:50;7.05;98.39
63051;SHT30;49136;47.416;19.402;2022-11-03T05:16:15;7.09;98.38
63051;SHT30;49136;47.416;19.402;2022-11-03T05:18:43;7.13;98.42
63051;SHT30;49136;47.416;19.402;2022-11-03T05:21:17;7.30;98.38
63051;SHT30;49136;47.416;19.402;2022-11-03T05:23:49;7.38;98.37
63051;SHT30;49136;47.416;19.402;2022-11-03T05:26:17;7.50;98.32
63051;SHT30;49136;47.416;19.402;2022-11-03T05:28:47;7.57;98.33
63051;SHT30;49136;47.416;19.402;2022-11-03T05:31:23;7.52;98.24
63051;SHT30;49136;47.416;19.402;2022-11-03T05:33:51;7.43;98.29
63051;SHT30;49136;47.416;19.402;2022-11-03T05:36:25;7.46;98.32
63051;SHT30;49136;47.416;19.402;2022-11-03T05:38:57;7.40;98.39
63051;SHT30;49136;47.416;19.402;2022-11-03T05:41:28;7.33;98.46
63051;SHT30;49136;47.416;19.402;2022-11-03T05:44:36;7.26;98.56
63051;SHT30;49136;47.416;19.402;2022-11-03T05:47:23;7.23;98.59
63051;SHT30;49136;47.416;19.402;2022-11-03T05:49:52;7.30;98.70
63051;SHT30;49136;47.416;19.402;2022-11-03T05:52:23;7.52;98.73
63051;SHT30;49136;47.416;19.402;2022-11-03T05:54:51;7.61;98.69
63051;SHT30;49136;47.416;19.402;2022-11-03T05:57:17;7.65;98.69
63051;SHT30;49136;47.416;19.402;2022-11-03T05:59:45;7.78;98.68
63051;SHT30;49136;47.416;19.402;2022-11-03T06:02:38;7.87;98.62
63051;SHT30;49136;47.416;19.402;2022-11-03T06:05:24;8.00;98.61
63051;SHT30;49136;47.416;19.402;2022-11-03T06:07:53;8.17;98.59
63051;SHT30;49136;47.416;19.402;2022-11-03T06:10:23;8.31;98.59
63051;SHT30;49136;47.416;19.402;2022-11-03T06:12:49;8.52;98.57
63051;SHT30;49136;47.416;19.402;2022-11-03T06:15:27;8.68;98.53
63051;SHT30;49136;47.416;19.402;2022-11-03T06:17:53;8.77;98.52
63051;SHT30;49136;47.416;19.402;2022-11-03T06:20:20;8.83;98.48
63051;SHT30;49136;47.416;19.402;2022-11-03T06:22:46;8.90;98.54
63051;SHT30;49136;47.416;19.402;2022-11-03T06:25:30;9.03;98.52
63051;SHT30;49136;47.416;19.402;2022-11-03T06:28:04;9.08;98.49
63051;SHT30;49136;47.416;19.402;2022-11-03T06:30:35;9.17;98.48
63051;SHT30;49136;47.416;19.402;2022-11-03T06:33:13;9.21;98.54
63051;SHT30;49136;47.416;19.402;2022-11-03T06:35:40;9.21;98.49
63051;SHT30;49136;47.416;19.402;2022-11-03T06:38:18;9.36;98.51
63051;SHT30;49136;47.416;19.402;2022-11-03T06:40:44;9.45;98.51
63051;SHT30;49136;47.416;19.402;2022-11-03T06:43:24;9.53;98.45
63051;SHT30;49136;47.416;19.402;2022-11-03T06:46:11;9.66;98.45
63051;SHT30;49136;47.416;19.402;2022-11-03T06:48:38;9.77;98.45
63051;SHT30;49136;47.416;19.402;2022-11-03T06:51:13;9.95;98.48
63051;SHT30;49136;47.416;19.402;2022-11-03T06:53:39;9.91;98.45
63051;SHT30;49136;47.416;19.402;2022-11-03T06:56:12;9.99;98.51
63051;SHT30;49136;47.416;19.402;2022-11-03T06:58:39;10.14;98.56
63051;SHT30;49136;47.416;19.402;2022-11-03T07:03:39;10.29;98.55
63051;SHT30;49136;47.416;19.402;2022-11-03T07:06:21;10.31;98.53
63051;SHT30;49136;47.416;19.402;2022-11-03T07:08:53;10.24;98.60
63051;SHT30;49136;47.416;19.402;2022-11-03T07:11:25;10.32;98.42
63051;SHT30;49136;47.416;19.402;2022-11-03T07:13:56;10.43;98.44
63051;SHT30;49136;47.416;19.402;2022-11-03T07:16:34;10.42;98.37
63051;SHT30;49136;47.416;19.402;2022-11-03T07:19:13;10.38;98.39
63051;SHT30;49136;47.416;19.402;2022-11-03T07:21:52;10.40;98.40
63051;SHT30;49136;47.416;19.402;2022-11-03T07:24:28;10.28;98.37
63051;SHT30;49136;47.416;19.402;2022-11-03T07:29:46;10.15;98.43
63051;SHT30;49136;47.416;19.402;2022-11-03T07:32:16;10.19;98.41
63051;SHT30;49136;47.416;19.402;2022-11-03T07:34:43;10.18;98.33
63051;SHT30;49136;47.416;19.402;2022-11-03T07:37:19;10.09;98.30
63051;SHT30;49136;47.416;19.402;2022-11-03T07:39:46;9.97;98.25
63051;SHT30;49136;47.416;19.402;2022-11-03T07:42:23;10.11;98.35
63051;SHT30;49136;47.416;19.402;2022-11-03T07:44:50;10.02;98.28
63051;SHT30;49136;47.416;19.402;2022-11-03T07:47:21;10.09;98.35
63051;SHT30;49136;47.416;19.402;2022-11-03T07:49:47;9.98;98.32
63051;SHT30;49136;47.416;19.402;2022-11-03T07:52:19;10.15;98.50
63051;SHT30;49136;47.416;19.402;2022-11-03T07:54:46;10.16;98.45
63051;SHT30;49136;47.416;19.402;2022-11-03T07:57:20;10.26;98.45
63051;SHT30;49136;47.416;19.402;2022-11-03T07:59:48;10.28;98.44
63051;SHT30;49136;47.416;19.402;2022-11-03T08:02:28;10.28;98.40
63051;SHT30;49136;47.416;19.402;2022-11-03T08:04:54;10.38;98.47
63051;SHT30;49136;47.416;19.402;2022-11-03T08:07:20;10.48;98.45
63051;SHT30;49136;47.416;19.402;2022-11-03T08:09:45;10.46;98.41
63051;SHT30;49136;47.416;19.402;2022-11-03T08:12:10;10.57;98.44
63051;SHT30;49136;47.416;19.402;2022-11-03T08:14:36;10.57;98.50
63051;SHT30;49136;47.416;19.402;2022-11-03T08:17:02;10.48;98.39
63051;SHT30;49136;47.416;19.402;2022-11-03T08:19:27;10.48;98.42
63051;SHT30;49136;47.416;19.402;2022-11-03T08:21:53;10.60;98.44
63051;SHT30;49136;47.416;19.402;2022-11-03T08:24:18;10.71;98.47
63051;SHT30;49136;47.416;19.402;2022-11-03T08:26:43;10.63;98.40
63051;SHT30;49136;47.416;19.402;2022-11-03T08:29:09;10.66;98.47
63051;SHT30;49136;47.416;19.402;2022-11-03T08:31:34;10.50;98.43
63051;SHT30;49136;47.416;19.402;2022-11-03T08:34:00;10.61;98.48
63051;SHT30;49136;47.416;19.402;2022-11-03T08:36:25;10.68;98.48
63051;SHT30;49136;47.416;19.402;2022-11-03T08:38:50;10.74;98.45
63051;SHT30;49136;47.416;19.402;2022-11-03T08:41:16;10.64;98.45
63051;SHT30;49136;47.416;19.402;2022-11-03T08:43:41;10.77;98.47
63051;SHT30;49136;47.416;19.402;2022-11-03T08:46:07;10.83;98.51
63051;SHT30;49136;47.416;19.402;2022-11-03T08:48:32;10.61;98.41
63051;SHT30;49136;47.416;19.402;2022-11-03T08:50:57;10.68;98.48
63051;SHT30;49136;47.416;19.402;2022-11-03T08:53:24;10.90;98.62
63051;SHT30;49136;47.416;19.402;2022-11-03T08:55:51;10.87;98.58
63051;SHT30;49136;47.416;19.402;2022-11-03T08:58:17;10.77;98.49
63051;SHT30;49136;47.416;19.402;2022-11-03T09:00:42;10.94;98.55
63051;SHT30;49136;47.416;19.402;2022-11-03T09:03:07;11.04;98.64
63051;SHT30;49136;47.416;19.402;2022-11-03T09:05:33;10.87;98.41
63051;SHT30;49136;47.416;19.402;2022-11-03T09:07:58;10.90;98.61
63051;SHT30;49136;47.416;19.402;2022-11-03T09:10:24;10.78;98.39
63051;SHT30;49136;47.416;19.402;2022-11-03T09:12:49;10.87;98.53
63051;SHT30;49136;47.416;19.402;2022-11-03T09:15:15;10.94;98.45
63051;SHT30;49136;47.416;19.402;2022-11-03T09:17:40;10.94;98.53
63051;SHT30;49136;47.416;19.402;2022-11-03T09:20:05;11.05;98.44
63051;SHT30;49136;47.416;19.402;2022-11-03T09:22:31;11.26;98.54
63051;SHT30;49136;47.416;19.402;2022-11-03T09:24:57;11.20;98.48
63051;SHT30;49136;47.416;19.402;2022-11-03T09:27:22;11.27;98.46
63051;SHT30;49136;47.416;19.402;2022-11-03T09:29:48;11.22;98.37
63051;SHT30;49136;47.416;19.402;2022-11-03T09:32:13;10.97;98.33
63051;SHT30;49136;47.416;19.402;2022-11-03T09:34:40;11.15;98.43
63051;SHT30;49136;47.416;19.402;2022-11-03T09:37:05;11.08;98.48
63051;SHT30;49136;47.416;19.402;2022-11-03T09:39:31;11.18;98.54
63051;SHT30;49136;47.416;19.402;2022-11-03T09:41:57;11.33;98.55
63051;SHT30;49136;47.416;19.402;2022-11-03T09:44:23;11.40;98.40
63051;SHT30;49136;47.416;19.402;2022-11-03T09:46:49;11.49;98.31
63051;SHT30;49136;47.416;19.402;2022-11-03T09:49:16;11.60;98.29
63051;SHT30;49136;47.416;19.402;2022-11-03T09:51:42;11.39;98.20
63051;SHT30;49136;47.416;19.402;2022-11-03T09:54:13;11.57;98.12
63051;SHT30;49136;47.416;19.402;2022-11-03T09:56:40;11.44;98.11
63051;SHT30;49136;47.416;19.402;2022-11-03T09:59:13;11.60;98.12
63051;SHT30;49136;47.416;19.402;2022-11-03T10:01:39;11.77;98.12
63051;SHT30;49136;47.416;19.402;2022-11-03T10:04:08;11.53;98.08
63051;SHT30;49136;47.416;19.402;2022-11-03T10:06:35;11.50;98.13
63051;SHT30;49136;47.416;19.402;2022-11-03T10:09:00;11.40;98.02
63051;SHT30;49136;47.416;19.402;2022-11-03T10:11:26;11.36;98.01
63051;SHT30;49136;47.416;19.402;2022-11-03T10:13:54;11.34;98.21
63051;SHT30;49136;47.416;19.402;2022-11-03T10:16:21;11.37;98.29
63051;SHT30;49136;47.416;19.402;2022-11-03T10:18:48;11.39;98.22
63051;SHT30;49136;47.416;19.402;2022-11-03T10:21:29;11.43;98.18
63051;SHT30;49136;47.416;19.402;2022-11-03T10:23:55;11.49;98.06
63051;SHT30;49136;47.416;19.402;2022-11-03T10:26:20;11.53;98.17
63051;SHT30;49136;47.416;19.402;2022-11-03T10:29:03;11.70;98.29
63051;SHT30;49136;47.416;19.402;2022-11-03T10:31:39;11.70;98.24
63051;SHT30;49136;47.416;19.402;2022-11-03T10:34:22;11.67;98.00
63051;SHT30;49136;47.416;19.402;2022-11-03T10:36:48;11.94;98.06
63051;SHT30;49136;47.416;19.402;2022-11-03T10:39:28;11.95;97.85
63051;SHT30;49136;47.416;19.402;2022-11-03T10:41:57;12.05;97.70
63051;SHT30;49136;47.416;19.402;2022-11-03T10:44:25;12.18;97.40
63051;SHT30;49136;47.416;19.402;2022-11-03T10:47:32;11.96;97.59
63051;SHT30;49136;47.416;19.402;2022-11-03T10:49:59;12.20;97.56
63051;SHT30;49136;47.416;19.402;2022-11-03T10:52:27;12.10;97.57
63051;SHT30;49136;47.416;19.402;2022-11-03T10:54:56;12.08;97.49
63051;SHT30;49136;47.416;19.402;2022-11-03T10:57:23;12.23;97.49
63051;SHT30;49136;47.416;19.402;2022-11-03T10:59:50;12.30;97.23
63051;SHT30;49136;47.416;19.402;2022-11-03T11:02:23;12.09;97.33
63051;SHT30;49136;47.416;19.402;2022-11-03T11:04:54;12.44;97.26
63051;SHT30;49136;47.416;19.402;2022-11-03T11:07:23;12.51;96.87
63051;SHT30;49136;47.416;19.402;2022-11-03T11:09:50;12.50;97.10
63051;SHT30;49136;47.416;19.402;2022-11-03T11:12:21;12.47;96.86
63051;SHT30;49136;47.416;19.402;2022-11-03T11:14:53;12.45;97.07
63051;SHT30;49136;47.416;19.402;2022-11-03T11:17:40;12.38;97.20
63051;SHT30;49136;47.416;19.402;2022-11-03T11:22:48;12.45;96.94
63051;SHT30;49136;47.416;19.402;2022-11-03T11:25:14;12.57;96.53
63051;SHT30;49136;47.416;19.402;2022-11-03T11:30:54;12.43;96.90
63051;SHT30;49136;47.416;19.402;2022-11-03T11:41:04;12.43;96.78
63051;SHT30;49136;47.416;19.402;2022-11-03T11:43:29;12.43;96.55
63051;SHT30;49136;47.416;19.402;2022-11-03T11:49:34;12.10;97.06
63051;SHT30;49136;47.416;19.402;2022-11-03T11:51:35;12.06;97.42
63051;SHT30;49136;47.416;19.402;2022-11-03T11:54:16;12.12;97.42
63051;SHT30;49136;47.416;19.402;2022-11-03T11:56:45;11.99;97.64
63051;SHT30;49136;47.416;19.402;2022-11-03T11:59:16;12.08;97.61
63051;SHT30;49136;47.416;19.402;2022-11-03T12:01:42;12.03;97.51
63051;SHT30;49136;47.416;19.402;2022-11-03T12:04:17;12.02;97.63
63051;SHT30;49136;47.416;19.402;2022-11-03T12:06:44;11.86;97.65
63051;SHT30;49136;47.416;19.402;2022-11-03T12:14:34;11.79;97.65
63051;SHT30;49136;47.416;19.402;2022-11-03T12:19:43;11.82;97.52
63051;SHT30;49136;47.416;19.402;2022-11-03T12:24:54;11.54;97.75
63051;SHT30;49136;47.416;19.402;2022-11-03T12:29:48;11.54;97.91
63051;SHT30;49136;47.416;19.402;2022-11-03T12:32:14;11.64;97.81
63051;SHT30;49136;47.416;19.402;2022-11-03T12:34:39;11.64;97.67
63051;SHT30;49136;47.416;19.402;2022-11-03T12:37:04;11.66;97.75
63051;SHT30;49136;47.416;19.402;2022-11-03T12:39:30;11.64;97.70
63051;SHT30;49136;47.416;19.402;2022-11-03T12:41:55;11.44;97.85
63051;SHT30;49136;47.416;19.402;2022-11-03T12:44:21;11.47;97.87
63051;SHT30;49136;47.416;19.402;2022-11-03T12:46:46;11.44;97.86
63051;SHT30;49136;47.416;19.402;2022-11-03T12:49:11;11.39;97.76
63051;SHT30;49136;47.416;19.402;2022-11-03T12:51:37;11.43;97.89
63051;SHT30;49136;47.416;19.402;2022-11-03T12:54:02;11.42;97.96
63051;SHT30;49136;47.416;19.402;2022-11-03T12:56:27;11.49;97.92
63051;SHT30;49136;47.416;19.402;2022-11-03T12:58:53;11.57;97.97
63051;SHT30;49136;47.416;19.402;2022-11-03T13:01:18;11.46;97.78
63051;SHT30;49136;47.416;19.402;2022-11-03T13:03:44;11.51;97.82
63051;SHT30;49136;47.416;19.402;2022-11-03T13:06:09;11.50;97.72
63051;SHT30;49136;47.416;19.402;2022-11-03T13:08:36;11.43;97.80
63051;SHT30;49136;47.416;19.402;2022-11-03T13:11:02;11.30;97.82
63051;SHT30;49136;47.416;19.402;2022-11-03T13:13:27;11.32;97.86
63051;SHT30;49136;47.416;19.402;2022-11-03T13:15:53;11.37;97.83
63051;SHT30;49136;47.416;19.402;2022-11-03T13:18:20;11.32;97.91
63051;SHT30;49136;47.416;19.402;2022-11-03T13:20:46;11.39;97.90
63051;SHT30;49136;47.416;19.402;2022-11-03T13:23:11;11.39;97.90
63051;SHT30;49136;47.416;19.402;2022-11-03T13:25:37;11.14;97.69
63051;SHT30;49136;47.416;19.402;2022-11-03T13:28:02;11.12;98.04
63051;SHT30;49136;47.416;19.402;2022-11-03T13:30:28;10.99;98.00
63051;SHT30;49136;47.416;19.402;2022-11-03T13:32:54;10.98;98.07
63051;SHT30;49136;47.416;19.402;2022-11-03T13:35:20;10.95;98.09
63051;SHT30;49136;47.416;19.402;2022-11-03T13:37:46;10.90;98.13
63051;SHT30;49136;47.416;19.402;2022-11-03T13:40:12;10.74;98.20
63051;SHT30;49136;47.416;19.402;2022-11-03T13:42:38;10.67;98.11
63051;SHT30;49136;47.416;19.402;2022-11-03T13:45:04;10.59;98.07
63051;SHT30;49136;47.416;19.402;2022-11-03T13:47:29;10.36;98.11
63051;SHT30;49136;47.416;19.402;2022-11-03T13:49:55;10.36;98.21
63051;SHT30;49136;47.416;19.402;2022-11-03T13:52:21;10.40;98.22
63051;SHT30;49136;47.416;19.402;2022-11-03T13:54:46;10.25;98.18
63051;SHT30;49136;47.416;19.402;2022-11-03T13:57:12;10.24;98.21
63051;SHT30;49136;47.416;19.402;2022-11-03T13:59:37;10.16;98.19
63051;SHT30;49136;47.416;19.402;2022-11-03T14:02:04;9.97;98.19
63051;SHT30;49136;47.416;19.402;2022-11-03T14:04:30;9.98;98.23
63051;SHT30;49136;47.416;19.402;2022-11-03T14:06:55;9.81;98.23
63051;SHT30;49136;47.416;19.402;2022-11-03T14:09:21;9.59;97.99
63051;SHT30;49136;47.416;19.402;2022-11-03T14:11:47;9.66;98.14
63051;SHT30;49136;47.416;19.402;2022-11-03T14:14:31;9.72;98.16
63051;SHT30;49136;47.416;19.402;2022-11-03T14:16:56;9.62;98.12
63051;SHT30;49136;47.416;19.402;2022-11-03T14:19:22;9.64;98.17
63051;SHT30;49136;47.416;19.402;2022-11-03T14:21:48;9.59;98.22
63051;SHT30;49136;47.416;19.402;2022-11-03T14:24:14;9.55;98.20
63051;SHT30;49136;47.416;19.402;2022-11-03T14:26:39;9.60;98.21
63051;SHT30;49136;47.416;19.402;2022-11-03T14:29:04;9.42;98.21
63051;SHT30;49136;47.416;19.402;2022-11-03T14:31:30;9.39;98.19
63051;SHT30;49136;47.416;19.402;2022-11-03T14:33:56;9.32;98.18
63051;SHT30;49136;47.416;19.402;2022-11-03T14:36:21;9.14;98.11
63051;SHT30;49136;47.416;19.402;2022-11-03T14:38:46;9.29;98.25
63051;SHT30;49136;47.416;19.402;2022-11-03T14:41:12;9.21;98.18
63051;SHT30;49136;47.416;19.402;2022-11-03T14:43:56;9.25;98.27
63051;SHT30;49136;47.416;19.402;2022-11-03T14:46:21;9.05;98.19
63051;SHT30;49136;47.416;19.402;2022-11-03T14:48:46;9.15;98.30
63051;SHT30;49136;47.416;19.402;2022-11-03T14:51:12;9.15;98.29
63051;SHT30;49136;47.416;19.402;2022-11-03T14:53:37;9.07;98.19
63051;SHT30;49136;47.416;19.402;2022-11-03T14:56:03;9.00;98.17
63051;SHT30;49136;47.416;19.402;2022-11-03T14:58:28;9.00;98.38
63051;SHT30;49136;47.416;19.402;2022-11-03T15:00:53;8.96;98.37
63051;SHT30;49136;47.416;19.402;2022-11-03T15:03:19;9.04;98.60
63051;SHT30;49136;47.416;19.402;2022-11-03T15:05:44;9.08;98.61
63051;SHT30;49136;47.416;19.402;2022-11-03T15:08:15;9.10;98.65
63051;SHT30;49136;47.416;19.402;2022-11-03T15:10:41;9.13;98.69
63051;SHT30;49136;47.416;19.402;2022-11-03T15:13:07;9.18;98.69
63051;SHT30;49136;47.416;19.402;2022-11-03T15:15:33;9.18;98.71
63051;SHT30;49136;47.416;19.402;2022-11-03T15:18:03;9.22;98.74
63051;SHT30;49136;47.416;19.402;2022-11-03T15:20:29;9.18;98.76
63051;SHT30;49136;47.416;19.402;2022-11-03T15:22:55;9.20;98.74
63051;SHT30;49136;47.416;19.402;2022-11-03T15:25:20;9.20;98.84
63051;SHT30;49136;47.416;19.402;2022-11-03T15:27:46;9.28;98.84
63051;SHT30;49136;47.416;19.402;2022-11-03T15:30:11;9.29;98.85
63051;SHT30;49136;47.416;19.402;2022-11-03T15:32:37;9.29;98.87
63051;SHT30;49136;47.416;19.402;2022-11-03T15:35:03;9.34;98.90
63051;SHT30;49136;47.416;19.402;2022-11-03T15:37:28;9.36;98.89
63051;SHT30;49136;47.416;19.402;2022-11-03T15:39:54;9.38;98.90
63051;SHT30;49136;47.416;19.402;2022-11-03T15:42:19;9.43;98.92
63051;SHT30;49136;47.416;19.402;2022-11-03T15:44:44;9.42;98.91
63051;SHT30;49136;47.416;19.402;2022-11-03T15:47:10;9.46;98.96
63051;SHT30;49136;47.416;19.402;2022-11-03T15:49:35;9.49;98.97
63051;SHT30;49136;47.416;19.402;2022-11-03T15:52:01;9.50;98.95
63051;SHT30;49136;47.416;19.402;2022-11-03T15:54:26;9.53;98.90
63051;SHT30;49136;47.416;19.402;2022-11-03T15:56:51;9.55;98.92
63051;SHT30;49136;47.416;19.402;2022-11-03T15:59:17;9.57;98.89
63051;SHT30;49136;47.416;19.402;2022-11-03T16:01:43;9.59;98.94
63051;SHT30;49136;47.416;19.402;2022-11-03T16:04:08;9.64;98.84
63051;SHT30;49136;47.416;19.402;2022-11-03T16:06:33;9.64;98.82
63051;SHT30;49136;47.416;19.402;2022-11-03T16:08:59;9.70;98.82
63051;SHT30;49136;47.416;19.402;2022-11-03T16:11:24;9.70;98.80
63051;SHT30;49136;47.416;19.402;2022-11-03T16:13:50;9.73;98.80
63051;SHT30;49136;47.416;19.402;2022-11-03T16:16:15;9.77;98.76
63051;SHT30;49136;47.416;19.402;2022-11-03T16:18:40;9.79;98.73
63051;SHT30;49136;47.416;19.402;2022-11-03T16:21:06;9.81;98.67
63051;SHT30;49136;47.416;19.402;2022-11-03T16:23:31;9.86;98.67
63051;SHT30;49136;47.416;19.402;2022-11-03T16:25:56;9.87;98.65
63051;SHT30;49136;47.416;19.402;2022-11-03T16:28:22;9.93;98.61